Aeroporto :
LOGIN :

Iscrizione | Disclaimer

   EN    FR    IT 

 










Sommario :    VFR   VFR Marginale   IFR   IFR Intensivo   IFR Molto Intensivo
Visibilità : 
Base nubi : 
>= 8 km
>= 3000ft
5 / 8 km
1000 / 3000 ft
1500m / 5 km
500 / 1000 ft
800 / 1500m
200 / 500 ft
< 800m
< 200 ft
Simboli :   Temporali  Nebbia  Neve Forte  Precipitazioni Forti  Vento > 20 kt
SIGMETs :   Varie  Temporali  Ghiacco  Turbolenza  Onda orograficha  Ceneri Vulcaniche







- Altitudine del aeroporto : 75 ft
- Codice IATA : YEO


EGDY - RNAS Yeovilton

ULTIMO METAR :
  • 201050Z 20016KT 9999 FEW010 BKN018 11/08 Q1019 WHT TEMPO SCT010 GRN

METARs OBSOLETI :
  • 201027Z 20014KT 9999 FEW010 BKN020 10/08 Q1019 WHT TEMPO SCT010 GRN
  • 200950Z 20011KT 9999 SCT012 BKN035 10/08 Q1019 GRN TEMPO FEW012 BLU
  • 200928Z 20012KT 9999 SCT014 BKN090 10/08 Q1018 GRN TEMPO FEW012 BLU
  • 200850Z 20012KT 9999 FEW012 BKN090 10/08 Q1018 BLU TEMPO SCT012 GRN

TAF TAF EGDY
Valido dal 20 a 09 ore il 20 a 18 ore UTC


200751Z 2009/2018 20010G20KT 9999 FEW012 SCT018
TEMPO 2009/2012 SCT012
Nessun NOTAM noto per questo aeroporto.
1 SIGMET conosciuto per la FIR London (EGTT) :
 
Forte onda orograficha
EGTT SIGMET 02 VALID 200930/201330 EGRR
EGTT LONDON FIR SEV MTW FCST WI N5500 E00006 - N5430 E00009 - N5224 W00209 - N5222 W00327 - N5355 W00530 - N5500 W00530 - N5500 E00006 FL030/250 STNR NC=



MetMap, La meteo Aeronautica in un colpo d'occhio ! - Copyright ORBIFLY Dicembre 2007 - Disclaimer

ORBIFLY MET'MAP TEAM :

Programmazione e sviluppo : Alexandra Zaïnal
Concezione e sviluppo : Baudouin d'Aumeries
Co-Programmazione e sviluppo : Marc-Olivier Méhu
Supporto tecnico e logistico : Manuel Goepfert
Aiuto per la traduzione : Arnaldo La Scala

Contatto : metmap@orbifly.com




FONTI E CREDITI :

   NOAA